Terminal Aerodrome Forecast
Issued by NWS Cleveland, OH

Home | Current Version | Previous Version | Text Only | Print | Product List | Glossary Off
Versions: 1 2 3 4 5 6 7 8 9 10 11 12 13 14

000
FTUS41 KCLE 230840 AAA
TAFCAK
TAF AMD
KCAK 230840Z 2309/2406 22012KT P6SM OVC014
     FM231100 20012KT P6SM VCSH BKN015 OVC025
      TEMPO 2311/2314 4SM -SHRA OVC008
     FM231600 22015G22KT 5SM -SHRA BR VCTS OVC015CB
      TEMPO 2316/2319 24012KT 1SM TSRA OVC005CB
     FM232200 24010KT 5SM -SHRA OVC018
     FM240100 25007KT P6SM OVC018=

USA.gov is the U.S. government's official web portal to all federal, state and local government web resources and services.